createdAt,value
2023-03-22T00:01:25.098Z,1.63
2023-03-22T00:11:30.688Z,1.50
2023-03-22T00:21:36.371Z,1.33
2023-03-22T00:31:42.251Z,1.28
2023-03-22T00:41:48.052Z,1.32
2023-03-22T00:51:54.921Z,1.36
2023-03-22T01:02:00.807Z,1.28
2023-03-22T01:12:06.899Z,1.30
2023-03-22T01:22:12.793Z,1.35
2023-03-22T01:32:18.536Z,1.20
2023-03-22T01:42:24.936Z,1.10
2023-03-22T01:52:30.921Z,1.07
2023-03-22T02:02:37.063Z,1.29
2023-03-22T02:12:52.761Z,1.70
2023-03-22T02:23:37.196Z,1.93
2023-03-22T02:34:06.837Z,2.08
2023-03-22T02:44:23.618Z,2.12
2023-03-22T02:54:29.801Z,2.30
2023-03-22T03:04:39.703Z,2.58
2023-03-22T03:14:45.615Z,2.94
2023-03-22T03:24:59.164Z,3.26
2023-03-22T03:35:10.873Z,3.57
2023-03-22T03:45:18.129Z,3.83
2023-03-22T03:55:23.062Z,4.05
2023-03-22T04:05:28.732Z,4.19
2023-03-22T04:15:34.539Z,4.32
2023-03-22T04:25:41.923Z,4.42
2023-03-22T04:35:47.637Z,4.51
2023-03-22T04:45:55.020Z,4.62
2023-03-22T04:56:02.698Z,4.77
2023-03-22T05:06:10.393Z,4.92
2023-03-22T05:16:16.145Z,5.03
2023-03-22T05:26:24.319Z,5.15
2023-03-22T05:36:30.935Z,5.31
2023-03-22T05:46:36.635Z,5.51
2023-03-22T05:56:44.226Z,5.76
2023-03-22T06:06:50.638Z,5.96
2023-03-22T06:16:56.346Z,6.04
2023-03-22T06:27:02.207Z,6.11
2023-03-22T06:37:07.966Z,6.20
2023-03-22T06:47:14.047Z,6.38
2023-03-22T06:57:19.752Z,6.65
2023-03-22T07:07:25.522Z,6.87
2023-03-22T07:17:31.125Z,6.99
2023-03-22T07:27:37.417Z,7.11
2023-03-22T07:37:43.234Z,7.42
2023-03-22T07:47:49.010Z,8.62
2023-03-22T07:57:55.162Z,11.13
2023-03-22T08:08:00.854Z,12.23
2023-03-22T08:18:08.714Z,11.09
2023-03-22T08:28:14.765Z,10.86
2023-03-22T08:38:20.978Z,11.72
2023-03-22T08:48:29.187Z,13.04
2023-03-22T08:58:34.998Z,13.46
2023-03-22T09:08:41.518Z,13.29
2023-03-22T09:18:47.277Z,13.55
2023-03-22T09:28:53.007Z,14.96
2023-03-22T09:38:59.432Z,15.16
2023-03-22T09:49:10.875Z,14.61
2023-03-22T09:59:23.473Z,13.81
2023-03-22T10:09:35.488Z,13.57
2023-03-22T10:19:49.972Z,13.77
2023-03-22T10:30:00.915Z,13.83
2023-03-22T10:40:13.703Z,14.18
2023-03-22T10:50:22.698Z,15.08
2023-03-22T11:00:29.724Z,15.54
2023-03-22T11:10:36.142Z,15.51
2023-03-22T11:20:52.979Z,15.18
2023-03-22T11:31:05.925Z,14.78
2023-03-22T11:41:21.269Z,15.14
2023-03-22T11:51:33.451Z,15.52
2023-03-22T12:01:43.083Z,15.50
2023-03-22T12:11:51.049Z,15.56
2023-03-22T12:21:58.278Z,15.59
2023-03-22T12:32:08.451Z,15.68
2023-03-22T12:42:23.052Z,15.46
2023-03-22T12:52:45.250Z,15.77
2023-03-22T13:02:58.129Z,16.31
2023-03-22T13:13:18.231Z,16.64
2023-03-22T13:23:32.218Z,16.35
2023-03-22T13:33:39.214Z,16.23
2023-03-22T13:43:50.643Z,16.12
2023-03-22T13:54:02.457Z,16.26
2023-03-22T14:04:12.349Z,16.19
2023-03-22T14:14:24.642Z,16.18
